sensor_id;sensor_type;location;lat;lon;timestamp;temperature;humidity
13245;DHT22;6689;53.400;12.486;2022-10-18T00:01:52;18.20;1.00
13245;DHT22;6689;53.400;12.486;2022-10-18T00:04:34;18.10;1.00
13245;DHT22;6689;53.400;12.486;2022-10-18T00:07:01;18.10;1.00
13245;DHT22;6689;53.400;12.486;2022-10-18T00:09:43;18.00;1.00
13245;DHT22;6689;53.400;12.486;2022-10-18T00:12:21;18.00;1.00
13245;DHT22;6689;53.400;12.486;2022-10-18T00:14:53;18.00;1.00
13245;DHT22;6689;53.400;12.486;2022-10-18T00:17:21;18.00;1.00
13245;DHT22;6689;53.400;12.486;2022-10-18T00:19:56;17.90;1.00
13245;DHT22;6689;53.400;12.486;2022-10-18T00:22:37;17.90;1.00
13245;DHT22;6689;53.400;12.486;2022-10-18T00:25:19;17.90;1.00
13245;DHT22;6689;53.400;12.486;2022-10-18T00:30:43;17.80;1.00
13245;DHT22;6689;53.400;12.486;2022-10-18T00:33:24;17.90;1.00
13245;DHT22;6689;53.400;12.486;2022-10-18T00:35:52;17.80;1.00
13245;DHT22;6689;53.400;12.486;2022-10-18T00:38:22;17.80;1.00
13245;DHT22;6689;53.400;12.486;2022-10-18T00:40:57;17.80;1.00
13245;DHT22;6689;53.400;12.486;2022-10-18T00:43:27;17.80;1.00
13245;DHT22;6689;53.400;12.486;2022-10-18T00:48:59;17.80;1.00
13245;DHT22;6689;53.400;12.486;2022-10-18T00:51:29;17.80;1.00
13245;DHT22;6689;53.400;12.486;2022-10-18T00:53:59;17.80;1.00
13245;DHT22;6689;53.400;12.486;2022-10-18T00:56:28;17.80;1.00
13245;DHT22;6689;53.400;12.486;2022-10-18T00:59:09;17.80;1.00
13245;DHT22;6689;53.400;12.486;2022-10-18T01:01:37;17.80;1.00
13245;DHT22;6689;53.400;12.486;2022-10-18T01:04:23;17.70;1.00
13245;DHT22;6689;53.400;12.486;2022-10-18T01:06:53;17.90;1.00
13245;DHT22;6689;53.400;12.486;2022-10-18T01:09:36;17.70;1.00
13245;DHT22;6689;53.400;12.486;2022-10-18T01:12:12;17.70;1.00
13245;DHT22;6689;53.400;12.486;2022-10-18T01:14:44;17.70;1.00
13245;DHT22;6689;53.400;12.486;2022-10-18T01:17:14;17.70;1.00
13245;DHT22;6689;53.400;12.486;2022-10-18T01:22:44;17.60;1.00
13245;DHT22;6689;53.400;12.486;2022-10-18T01:25:16;17.60;1.00
13245;DHT22;6689;53.400;12.486;2022-10-18T01:27:52;17.60;1.00
13245;DHT22;6689;53.400;12.486;2022-10-18T01:33:28;17.50;1.00
13245;DHT22;6689;53.400;12.486;2022-10-18T01:35:58;17.50;1.00
13245;DHT22;6689;53.400;12.486;2022-10-18T01:38:28;17.40;1.00
13245;DHT22;6689;53.400;12.486;2022-10-18T01:41:11;17.40;1.00
13245;DHT22;6689;53.400;12.486;2022-10-18T01:43:43;17.40;1.00
13245;DHT22;6689;53.400;12.486;2022-10-18T01:46:26;17.40;1.00
13245;DHT22;6689;53.400;12.486;2022-10-18T01:49:17;17.40;1.00
13245;DHT22;6689;53.400;12.486;2022-10-18T01:51:59;17.30;1.00
13245;DHT22;6689;53.400;12.486;2022-10-18T01:54:38;17.30;1.00
13245;DHT22;6689;53.400;12.486;2022-10-18T01:57:11;17.30;1.00
13245;DHT22;6689;53.400;12.486;2022-10-18T01:59:46;17.30;1.00
13245;DHT22;6689;53.400;12.486;2022-10-18T02:02:37;17.20;1.00
13245;DHT22;6689;53.400;12.486;2022-10-18T02:05:15;17.20;1.00
13245;DHT22;6689;53.400;12.486;2022-10-18T02:07:46;17.20;1.00
13245;DHT22;6689;53.400;12.486;2022-10-18T02:10:30;17.20;1.00
13245;DHT22;6689;53.400;12.486;2022-10-18T02:13:03;17.20;1.00
13245;DHT22;6689;53.400;12.486;2022-10-18T02:15:34;17.20;1.00
13245;DHT22;6689;53.400;12.486;2022-10-18T02:18:04;17.20;1.00
13245;DHT22;6689;53.400;12.486;2022-10-18T02:20:37;17.20;1.00
13245;DHT22;6689;53.400;12.486;2022-10-18T02:23:15;17.20;1.00
13245;DHT22;6689;53.400;12.486;2022-10-18T02:25:59;17.20;1.00
13245;DHT22;6689;53.400;12.486;2022-10-18T02:28:29;17.20;1.00
13245;DHT22;6689;53.400;12.486;2022-10-18T02:30:59;17.10;1.00
13245;DHT22;6689;53.400;12.486;2022-10-18T02:33:31;17.10;1.00
13245;DHT22;6689;53.400;12.486;2022-10-18T02:39:00;17.00;1.00
13245;DHT22;6689;53.400;12.486;2022-10-18T02:41:29;17.10;1.00
13245;DHT22;6689;53.400;12.486;2022-10-18T02:44:11;17.00;1.00
13245;DHT22;6689;53.400;12.486;2022-10-18T02:46:39;17.10;1.00
13245;DHT22;6689;53.400;12.486;2022-10-18T02:49:09;17.10;1.00
13245;DHT22;6689;53.400;12.486;2022-10-18T02:51:38;17.20;1.00
13245;DHT22;6689;53.400;12.486;2022-10-18T02:59:54;17.00;1.00
13245;DHT22;6689;53.400;12.486;2022-10-18T03:02:29;17.00;1.00
13245;DHT22;6689;53.400;12.486;2022-10-18T03:04:59;16.90;1.00
13245;DHT22;6689;53.400;12.486;2022-10-18T03:07:29;17.00;1.00
13245;DHT22;6689;53.400;12.486;2022-10-18T03:09:59;17.00;1.00
13245;DHT22;6689;53.400;12.486;2022-10-18T03:12:40;17.00;1.00
13245;DHT22;6689;53.400;12.486;2022-10-18T03:18:04;17.00;1.00
13245;DHT22;6689;53.400;12.486;2022-10-18T03:20:35;17.10;1.00
13245;DHT22;6689;53.400;12.486;2022-10-18T03:23:17;17.00;1.00
13245;DHT22;6689;53.400;12.486;2022-10-18T03:25:49;17.10;1.00
13245;DHT22;6689;53.400;12.486;2022-10-18T03:28:19;17.00;1.00
13245;DHT22;6689;53.400;12.486;2022-10-18T03:31:00;17.00;1.00
13245;DHT22;6689;53.400;12.486;2022-10-18T03:33:39;17.00;1.00
13245;DHT22;6689;53.400;12.486;2022-10-18T03:36:21;17.00;1.00
13245;DHT22;6689;53.400;12.486;2022-10-18T03:39:01;17.00;1.00
13245;DHT22;6689;53.400;12.486;2022-10-18T03:41:29;17.00;1.00
13245;DHT22;6689;53.400;12.486;2022-10-18T03:43:59;16.90;1.00
13245;DHT22;6689;53.400;12.486;2022-10-18T03:46:29;16.90;1.00
13245;DHT22;6689;53.400;12.486;2022-10-18T03:49:14;17.00;1.00
13245;DHT22;6689;53.400;12.486;2022-10-18T03:51:45;17.00;1.00
13245;DHT22;6689;53.400;12.486;2022-10-18T03:54:14;16.90;1.00
13245;DHT22;6689;53.400;12.486;2022-10-18T03:56:49;16.90;1.00
13245;DHT22;6689;53.400;12.486;2022-10-18T03:59:25;16.90;1.00
13245;DHT22;6689;53.400;12.486;2022-10-18T04:01:55;17.00;1.00
13245;DHT22;6689;53.400;12.486;2022-10-18T04:07:29;16.90;1.00
13245;DHT22;6689;53.400;12.486;2022-10-18T04:10:05;16.90;1.00
13245;DHT22;6689;53.400;12.486;2022-10-18T04:12:35;16.80;1.00
13245;DHT22;6689;53.400;12.486;2022-10-18T04:15:11;16.80;1.00
13245;DHT22;6689;53.400;12.486;2022-10-18T04:17:41;16.80;1.00
13245;DHT22;6689;53.400;12.486;2022-10-18T04:20:10;16.80;1.00
13245;DHT22;6689;53.400;12.486;2022-10-18T04:22:45;16.80;1.00
13245;DHT22;6689;53.400;12.486;2022-10-18T04:25:19;16.80;1.00
13245;DHT22;6689;53.400;12.486;2022-10-18T04:27:51;16.80;1.00
13245;DHT22;6689;53.400;12.486;2022-10-18T04:30:20;16.80;1.00
13245;DHT22;6689;53.400;12.486;2022-10-18T04:32:55;16.80;1.00
13245;DHT22;6689;53.400;12.486;2022-10-18T04:35:25;16.80;1.00
13245;DHT22;6689;53.400;12.486;2022-10-18T04:38:10;16.80;1.00
13245;DHT22;6689;53.400;12.486;2022-10-18T04:40:51;16.80;1.00
13245;DHT22;6689;53.400;12.486;2022-10-18T04:43:20;16.80;1.00
13245;DHT22;6689;53.400;12.486;2022-10-18T04:46:01;16.80;1.00
13245;DHT22;6689;53.400;12.486;2022-10-18T04:48:29;16.80;1.00
13245;DHT22;6689;53.400;12.486;2022-10-18T04:51:01;16.70;1.00
13245;DHT22;6689;53.400;12.486;2022-10-18T04:53:30;16.70;1.00
13245;DHT22;6689;53.400;12.486;2022-10-18T04:56:11;16.70;1.00
13245;DHT22;6689;53.400;12.486;2022-10-18T04:58:53;16.70;1.00
13245;DHT22;6689;53.400;12.486;2022-10-18T05:01:20;16.70;1.00
13245;DHT22;6689;53.400;12.486;2022-10-18T05:03:57;16.70;1.00
13245;DHT22;6689;53.400;12.486;2022-10-18T05:06:26;16.70;1.00
13245;DHT22;6689;53.400;12.486;2022-10-18T05:08:57;16.70;1.00
13245;DHT22;6689;53.400;12.486;2022-10-18T05:11:26;16.60;1.00
13245;DHT22;6689;53.400;12.486;2022-10-18T05:14:07;16.70;1.00
13245;DHT22;6689;53.400;12.486;2022-10-18T05:16:37;16.60;1.00
13245;DHT22;6689;53.400;12.486;2022-10-18T05:19:19;16.50;1.00
13245;DHT22;6689;53.400;12.486;2022-10-18T05:22:01;16.50;1.00
13245;DHT22;6689;53.400;12.486;2022-10-18T05:24:39;16.50;1.00
13245;DHT22;6689;53.400;12.486;2022-10-18T05:27:10;16.50;1.00
13245;DHT22;6689;53.400;12.486;2022-10-18T05:29:40;16.40;1.00
13245;DHT22;6689;53.400;12.486;2022-10-18T05:32:11;16.40;1.00
13245;DHT22;6689;53.400;12.486;2022-10-18T05:34:41;16.40;1.00
13245;DHT22;6689;53.400;12.486;2022-10-18T05:37:11;16.30;1.00
13245;DHT22;6689;53.400;12.486;2022-10-18T05:39:47;16.20;1.00
13245;DHT22;6689;53.400;12.486;2022-10-18T05:42:16;16.20;1.00
13245;DHT22;6689;53.400;12.486;2022-10-18T05:44:45;16.20;1.00
13245;DHT22;6689;53.400;12.486;2022-10-18T05:47:21;16.20;1.00
13245;DHT22;6689;53.400;12.486;2022-10-18T05:49:50;16.10;1.00
13245;DHT22;6689;53.400;12.486;2022-10-18T05:52:21;16.10;1.00
13245;DHT22;6689;53.400;12.486;2022-10-18T05:55:00;16.10;1.00
13245;DHT22;6689;53.400;12.486;2022-10-18T05:57:43;16.10;1.00
13245;DHT22;6689;53.400;12.486;2022-10-18T06:00:16;16.00;1.00
13245;DHT22;6689;53.400;12.486;2022-10-18T06:02:51;16.00;1.00
13245;DHT22;6689;53.400;12.486;2022-10-18T06:05:22;16.00;1.00
13245;DHT22;6689;53.400;12.486;2022-10-18T06:07:51;16.00;1.00
13245;DHT22;6689;53.400;12.486;2022-10-18T06:16:36;16.00;1.00
13245;DHT22;6689;53.400;12.486;2022-10-18T06:19:17;16.00;1.00
13245;DHT22;6689;53.400;12.486;2022-10-18T06:21:46;16.00;1.00
13245;DHT22;6689;53.400;12.486;2022-10-18T06:24:21;16.00;1.00
13245;DHT22;6689;53.400;12.486;2022-10-18T06:27:03;16.00;1.00
13245;DHT22;6689;53.400;12.486;2022-10-18T06:29:33;16.00;1.00
13245;DHT22;6689;53.400;12.486;2022-10-18T06:32:08;16.10;1.00
13245;DHT22;6689;53.400;12.486;2022-10-18T06:34:36;16.10;1.00
13245;DHT22;6689;53.400;12.486;2022-10-18T06:37:11;16.20;1.00
13245;DHT22;6689;53.400;12.486;2022-10-18T06:39:41;16.20;1.00
13245;DHT22;6689;53.400;12.486;2022-10-18T06:42:08;16.10;1.00
13245;DHT22;6689;53.400;12.486;2022-10-18T06:44:36;16.10;1.00
13245;DHT22;6689;53.400;12.486;2022-10-18T06:47:12;16.10;1.00
13245;DHT22;6689;53.400;12.486;2022-10-18T06:49:41;16.10;1.00
13245;DHT22;6689;53.400;12.486;2022-10-18T06:52:11;16.10;1.00
13245;DHT22;6689;53.400;12.486;2022-10-18T06:54:41;16.10;1.00
13245;DHT22;6689;53.400;12.486;2022-10-18T06:57:23;16.10;1.00
13245;DHT22;6689;53.400;12.486;2022-10-18T06:59:52;16.10;1.00
13245;DHT22;6689;53.400;12.486;2022-10-18T07:02:27;16.10;1.00
13245;DHT22;6689;53.400;12.486;2022-10-18T07:05:09;16.10;1.00
13245;DHT22;6689;53.400;12.486;2022-10-18T07:07:37;16.10;1.00
13245;DHT22;6689;53.400;12.486;2022-10-18T07:10:19;16.10;1.00
13245;DHT22;6689;53.400;12.486;2022-10-18T07:12:47;16.10;1.00
13245;DHT22;6689;53.400;12.486;2022-10-18T07:15:28;16.10;1.00
13245;DHT22;6689;53.400;12.486;2022-10-18T07:21:01;16.10;1.00
13245;DHT22;6689;53.400;12.486;2022-10-18T07:23:32;16.10;1.00
13245;DHT22;6689;53.400;12.486;2022-10-18T07:26:02;16.10;1.00
13245;DHT22;6689;53.400;12.486;2022-10-18T07:28:44;16.00;1.00
13245;DHT22;6689;53.400;12.486;2022-10-18T07:31:13;16.00;1.00
13245;DHT22;6689;53.400;12.486;2022-10-18T07:33:47;16.00;1.00
13245;DHT22;6689;53.400;12.486;2022-10-18T07:39:01;16.00;1.00
13245;DHT22;6689;53.400;12.486;2022-10-18T07:41:42;16.00;1.00
13245;DHT22;6689;53.400;12.486;2022-10-18T07:44:14;16.00;1.00
13245;DHT22;6689;53.400;12.486;2022-10-18T07:46:43;15.90;1.00
13245;DHT22;6689;53.400;12.486;2022-10-18T07:49:13;15.90;1.00
13245;DHT22;6689;53.400;12.486;2022-10-18T07:51:55;16.00;1.00
13245;DHT22;6689;53.400;12.486;2022-10-18T08:00:22;16.00;1.00
13245;DHT22;6689;53.400;12.486;2022-10-18T08:02:57;15.90;1.00
13245;DHT22;6689;53.400;12.486;2022-10-18T08:05:39;15.90;1.00
13245;DHT22;6689;53.400;12.486;2022-10-18T08:08:07;15.90;1.00
13245;DHT22;6689;53.400;12.486;2022-10-18T08:10:48;15.90;1.00
13245;DHT22;6689;53.400;12.486;2022-10-18T08:13:18;15.90;1.00
13245;DHT22;6689;53.400;12.486;2022-10-18T08:16:03;15.80;5.10
13245;DHT22;6689;53.400;12.486;2022-10-18T08:18:34;15.80;5.30
13245;DHT22;6689;53.400;12.486;2022-10-18T08:21:03;15.80;2.50
13245;DHT22;6689;53.400;12.486;2022-10-18T08:23:34;15.90;1.00
13245;DHT22;6689;53.400;12.486;2022-10-18T08:26:06;15.90;1.00
13245;DHT22;6689;53.400;12.486;2022-10-18T08:28:38;15.90;1.00
13245;DHT22;6689;53.400;12.486;2022-10-18T08:31:13;15.90;1.00
13245;DHT22;6689;53.400;12.486;2022-10-18T08:33:44;16.00;1.00
13245;DHT22;6689;53.400;12.486;2022-10-18T08:36:13;16.00;1.00
13245;DHT22;6689;53.400;12.486;2022-10-18T08:38:42;16.00;1.00
13245;DHT22;6689;53.400;12.486;2022-10-18T08:41:30;16.00;1.00
13245;DHT22;6689;53.400;12.486;2022-10-18T08:44:05;16.00;1.00
13245;DHT22;6689;53.400;12.486;2022-10-18T08:46:50;16.00;1.00
13245;DHT22;6689;53.400;12.486;2022-10-18T08:49:22;16.00;1.00
13245;DHT22;6689;53.400;12.486;2022-10-18T08:51:54;16.00;1.00
13245;DHT22;6689;53.400;12.486;2022-10-18T08:54:24;16.00;1.00
13245;DHT22;6689;53.400;12.486;2022-10-18T08:56:55;16.10;1.00
13245;DHT22;6689;53.400;12.486;2022-10-18T08:59:38;16.10;1.00
13245;DHT22;6689;53.400;12.486;2022-10-18T09:02:30;16.10;1.00
13245;DHT22;6689;53.400;12.486;2022-10-18T09:05:07;16.10;1.00
13245;DHT22;6689;53.400;12.486;2022-10-18T09:07:47;16.00;1.00
13245;DHT22;6689;53.400;12.486;2022-10-18T09:10:20;16.10;1.00
13245;DHT22;6689;53.400;12.486;2022-10-18T09:13:02;16.10;1.00
13245;DHT22;6689;53.400;12.486;2022-10-18T09:15:35;16.20;1.00
13245;DHT22;6689;53.400;12.486;2022-10-18T09:18:29;16.20;1.00
13245;DHT22;6689;53.400;12.486;2022-10-18T09:20:58;16.20;1.00
13245;DHT22;6689;53.400;12.486;2022-10-18T09:23:40;16.30;1.00
13245;DHT22;6689;53.400;12.486;2022-10-18T09:26:09;16.30;1.00
13245;DHT22;6689;53.400;12.486;2022-10-18T09:28:49;16.30;1.00
13245;DHT22;6689;53.400;12.486;2022-10-18T09:31:21;16.30;1.00
13245;DHT22;6689;53.400;12.486;2022-10-18T09:33:59;16.20;1.00
13245;DHT22;6689;53.400;12.486;2022-10-18T09:36:41;16.30;1.00
13245;DHT22;6689;53.400;12.486;2022-10-18T09:39:21;16.30;1.00
13245;DHT22;6689;53.400;12.486;2022-10-18T09:42:04;16.30;1.00
13245;DHT22;6689;53.400;12.486;2022-10-18T09:44:34;16.10;1.00
13245;DHT22;6689;53.400;12.486;2022-10-18T09:47:20;16.30;1.00
13245;DHT22;6689;53.400;12.486;2022-10-18T09:49:53;16.20;1.00
13245;DHT22;6689;53.400;12.486;2022-10-18T09:52:25;16.30;1.00
13245;DHT22;6689;53.400;12.486;2022-10-18T09:55:04;16.20;1.00
13245;DHT22;6689;53.400;12.486;2022-10-18T09:57:36;16.40;1.00
13245;DHT22;6689;53.400;12.486;2022-10-18T10:00:20;16.40;1.00
13245;DHT22;6689;53.400;12.486;2022-10-18T10:02:56;16.50;1.00
13245;DHT22;6689;53.400;12.486;2022-10-18T10:05:39;16.60;1.00
13245;DHT22;6689;53.400;12.486;2022-10-18T10:08:09;16.60;1.00
13245;DHT22;6689;53.400;12.486;2022-10-18T10:10:51;16.50;1.00
13245;DHT22;6689;53.400;12.486;2022-10-18T10:13:23;16.60;1.00
13245;DHT22;6689;53.400;12.486;2022-10-18T10:16:05;16.70;1.00
13245;DHT22;6689;53.400;12.486;2022-10-18T10:18:35;16.70;1.00
13245;DHT22;6689;53.400;12.486;2022-10-18T10:21:06;16.70;1.00
13245;DHT22;6689;53.400;12.486;2022-10-18T10:23:35;16.70;1.00
13245;DHT22;6689;53.400;12.486;2022-10-18T10:26:05;16.70;1.00
13245;DHT22;6689;53.400;12.486;2022-10-18T10:28:34;16.70;1.00
13245;DHT22;6689;53.400;12.486;2022-10-18T10:31:17;16.80;1.00
13245;DHT22;6689;53.400;12.486;2022-10-18T10:33:45;16.90;1.00
13245;DHT22;6689;53.400;12.486;2022-10-18T10:36:20;16.90;1.00
13245;DHT22;6689;53.400;12.486;2022-10-18T10:39:01;16.90;1.00
13245;DHT22;6689;53.400;12.486;2022-10-18T10:41:29;16.90;1.00
13245;DHT22;6689;53.400;12.486;2022-10-18T10:44:01;16.90;1.00
13245;DHT22;6689;53.400;12.486;2022-10-18T10:46:34;16.90;1.00
13245;DHT22;6689;53.400;12.486;2022-10-18T10:49:16;17.00;1.00
13245;DHT22;6689;53.400;12.486;2022-10-18T10:51:52;17.10;1.00
13245;DHT22;6689;53.400;12.486;2022-10-18T10:54:21;17.00;1.00
13245;DHT22;6689;53.400;12.486;2022-10-18T10:56:51;16.90;1.00
13245;DHT22;6689;53.400;12.486;2022-10-18T10:59:37;17.00;1.00
13245;DHT22;6689;53.400;12.486;2022-10-18T11:02:18;17.00;1.00
13245;DHT22;6689;53.400;12.486;2022-10-18T11:05:14;17.10;1.00
13245;DHT22;6689;53.400;12.486;2022-10-18T11:08:02;17.20;1.00
13245;DHT22;6689;53.400;12.486;2022-10-18T11:10:31;17.30;1.00
13245;DHT22;6689;53.400;12.486;2022-10-18T11:13:08;17.40;1.00
13245;DHT22;6689;53.400;12.486;2022-10-18T11:16:26;17.50;1.00
13245;DHT22;6689;53.400;12.486;2022-10-18T11:18:55;17.50;1.00
13245;DHT22;6689;53.400;12.486;2022-10-18T11:21:31;17.60;1.00
13245;DHT22;6689;53.400;12.486;2022-10-18T11:24:02;17.50;99.90
13245;DHT22;6689;53.400;12.486;2022-10-18T11:26:39;17.70;1.40
13245;DHT22;6689;53.400;12.486;2022-10-18T11:29:25;17.50;99.90
13245;DHT22;6689;53.400;12.486;2022-10-18T11:32:21;17.50;99.90
13245;DHT22;6689;53.400;12.486;2022-10-18T11:34:57;17.60;99.90
13245;DHT22;6689;53.400;12.486;2022-10-18T11:37:29;17.60;99.90
13245;DHT22;6689;53.400;12.486;2022-10-18T11:40:08;17.80;99.90
13245;DHT22;6689;53.400;12.486;2022-10-18T11:42:42;17.80;99.90
13245;DHT22;6689;53.400;12.486;2022-10-18T11:45:17;17.70;99.90
13245;DHT22;6689;53.400;12.486;2022-10-18T11:47:57;17.70;99.90
13245;DHT22;6689;53.400;12.486;2022-10-18T11:50:33;17.70;99.90
13245;DHT22;6689;53.400;12.486;2022-10-18T11:53:10;17.70;99.90
13245;DHT22;6689;53.400;12.486;2022-10-18T11:55:44;17.70;99.90
13245;DHT22;6689;53.400;12.486;2022-10-18T11:58:37;17.70;99.90
13245;DHT22;6689;53.400;12.486;2022-10-18T12:01:10;17.70;99.90
13245;DHT22;6689;53.400;12.486;2022-10-18T12:03:47;17.60;99.90
13245;DHT22;6689;53.400;12.486;2022-10-18T12:06:31;17.70;99.90
13245;DHT22;6689;53.400;12.486;2022-10-18T12:09:03;17.80;99.90
13245;DHT22;6689;53.400;12.486;2022-10-18T12:11:31;17.60;99.90
13245;DHT22;6689;53.400;12.486;2022-10-18T12:14:02;17.70;99.90
13245;DHT22;6689;53.400;12.486;2022-10-18T12:16:37;17.70;99.90
13245;DHT22;6689;53.400;12.486;2022-10-18T12:19:13;17.70;99.90
13245;DHT22;6689;53.400;12.486;2022-10-18T12:21:56;17.80;99.90
13245;DHT22;6689;53.400;12.486;2022-10-18T12:24:37;17.80;99.90
13245;DHT22;6689;53.400;12.486;2022-10-18T12:27:07;17.80;99.90
13245;DHT22;6689;53.400;12.486;2022-10-18T12:29:38;17.90;99.90
13245;DHT22;6689;53.400;12.486;2022-10-18T12:32:10;17.90;99.90
13245;DHT22;6689;53.400;12.486;2022-10-18T12:34:46;17.80;99.90
13245;DHT22;6689;53.400;12.486;2022-10-18T12:40:02;18.00;99.90
13245;DHT22;6689;53.400;12.486;2022-10-18T12:42:31;18.20;99.90
13245;DHT22;6689;53.400;12.486;2022-10-18T12:45:04;18.10;99.90
13245;DHT22;6689;53.400;12.486;2022-10-18T12:47:31;18.10;99.90
13245;DHT22;6689;53.400;12.486;2022-10-18T12:53:02;18.30;99.90
13245;DHT22;6689;53.400;12.486;2022-10-18T12:55:44;18.40;99.90
13245;DHT22;6689;53.400;12.486;2022-10-18T12:58:27;18.50;99.90
13245;DHT22;6689;53.400;12.486;2022-10-18T13:01:09;18.40;99.90
13245;DHT22;6689;53.400;12.486;2022-10-18T13:03:38;18.40;99.90
13245;DHT22;6689;53.400;12.486;2022-10-18T13:06:08;18.40;99.90
13245;DHT22;6689;53.400;12.486;2022-10-18T13:11:37;18.40;99.90
13245;DHT22;6689;53.400;12.486;2022-10-18T13:16:51;18.60;99.90
13245;DHT22;6689;53.400;12.486;2022-10-18T13:19:23;18.70;99.90
13245;DHT22;6689;53.400;12.486;2022-10-18T13:22:17;18.80;99.90
13245;DHT22;6689;53.400;12.486;2022-10-18T13:25:04;18.80;99.90
13245;DHT22;6689;53.400;12.486;2022-10-18T13:27:51;18.90;99.90
13245;DHT22;6689;53.400;12.486;2022-10-18T13:30:30;18.80;99.90
13245;DHT22;6689;53.400;12.486;2022-10-18T13:33:24;18.80;99.90
13245;DHT22;6689;53.400;12.486;2022-10-18T13:36:18;18.60;99.90
13245;DHT22;6689;53.400;12.486;2022-10-18T13:38:54;18.60;99.90
13245;DHT22;6689;53.400;12.486;2022-10-18T13:41:26;18.50;99.90
13245;DHT22;6689;53.400;12.486;2022-10-18T13:44:10;18.40;99.90
13245;DHT22;6689;53.400;12.486;2022-10-18T13:49:52;18.30;99.90
13245;DHT22;6689;53.400;12.486;2022-10-18T13:52:24;18.20;99.90
13245;DHT22;6689;53.400;12.486;2022-10-18T13:55:00;18.30;99.90
13245;DHT22;6689;53.400;12.486;2022-10-18T14:00:38;18.20;99.90
13245;DHT22;6689;53.400;12.486;2022-10-18T14:03:35;18.20;99.90
13245;DHT22;6689;53.400;12.486;2022-10-18T14:06:08;18.20;99.90
13245;DHT22;6689;53.400;12.486;2022-10-18T14:08:37;18.10;99.90
13245;DHT22;6689;53.400;12.486;2022-10-18T14:11:10;18.00;99.90
13245;DHT22;6689;53.400;12.486;2022-10-18T14:13:54;18.00;99.90
13245;DHT22;6689;53.400;12.486;2022-10-18T14:22:13;17.70;99.90
13245;DHT22;6689;53.400;12.486;2022-10-18T14:24:57;17.80;99.90
13245;DHT22;6689;53.400;12.486;2022-10-18T14:27:38;17.70;99.90
13245;DHT22;6689;53.400;12.486;2022-10-18T14:30:11;17.40;99.90
13245;DHT22;6689;53.400;12.486;2022-10-18T14:32:44;17.40;99.90
13245;DHT22;6689;53.400;12.486;2022-10-18T14:35:24;17.20;99.90
13245;DHT22;6689;53.400;12.486;2022-10-18T14:37:58;17.30;99.90
13245;DHT22;6689;53.400;12.486;2022-10-18T14:40:28;17.30;99.90
13245;DHT22;6689;53.400;12.486;2022-10-18T14:43:03;17.20;99.90
13245;DHT22;6689;53.400;12.486;2022-10-18T14:45:33;17.20;99.90
13245;DHT22;6689;53.400;12.486;2022-10-18T14:48:06;17.20;99.90
13245;DHT22;6689;53.400;12.486;2022-10-18T14:50:48;17.10;99.90
13245;DHT22;6689;53.400;12.486;2022-10-18T14:53:36;17.00;99.90
13245;DHT22;6689;53.400;12.486;2022-10-18T14:56:19;16.90;99.90
13245;DHT22;6689;53.400;12.486;2022-10-18T14:58:53;16.90;99.90
13245;DHT22;6689;53.400;12.486;2022-10-18T15:01:23;16.90;99.90
13245;DHT22;6689;53.400;12.486;2022-10-18T15:03:56;16.80;99.90
13245;DHT22;6689;53.400;12.486;2022-10-18T15:06:31;16.80;99.90
13245;DHT22;6689;53.400;12.486;2022-10-18T15:09:08;16.80;99.90
13245;DHT22;6689;53.400;12.486;2022-10-18T15:11:49;16.80;99.90
13245;DHT22;6689;53.400;12.486;2022-10-18T15:14:19;16.80;99.90
13245;DHT22;6689;53.400;12.486;2022-10-18T15:17:03;16.80;99.90
13245;DHT22;6689;53.400;12.486;2022-10-18T15:19:34;16.80;99.90
13245;DHT22;6689;53.400;12.486;2022-10-18T15:22:04;16.70;99.90
13245;DHT22;6689;53.400;12.486;2022-10-18T15:25:01;16.70;99.90
13245;DHT22;6689;53.400;12.486;2022-10-18T15:27:29;16.70;99.90
13245;DHT22;6689;53.400;12.486;2022-10-18T15:30:03;16.70;99.90
13245;DHT22;6689;53.400;12.486;2022-10-18T15:32:48;16.60;99.90
13245;DHT22;6689;53.400;12.486;2022-10-18T15:35:22;16.60;99.90
13245;DHT22;6689;53.400;12.486;2022-10-18T15:37:50;16.40;99.90
13245;DHT22;6689;53.400;12.486;2022-10-18T15:45:58;16.30;99.90
13245;DHT22;6689;53.400;12.486;2022-10-18T15:48:29;16.20;99.90
13245;DHT22;6689;53.400;12.486;2022-10-18T15:51:17;16.20;99.90
13245;DHT22;6689;53.400;12.486;2022-10-18T15:54:01;16.10;99.90
13245;DHT22;6689;53.400;12.486;2022-10-18T15:56:30;16.10;99.90
13245;DHT22;6689;53.400;12.486;2022-10-18T15:59:24;16.00;99.90
13245;DHT22;6689;53.400;12.486;2022-10-18T16:01:55;16.00;99.90
13245;DHT22;6689;53.400;12.486;2022-10-18T16:04:37;15.90;99.90
13245;DHT22;6689;53.400;12.486;2022-10-18T16:07:18;15.90;99.90
13245;DHT22;6689;53.400;12.486;2022-10-18T16:09:59;15.80;99.90
13245;DHT22;6689;53.400;12.486;2022-10-18T16:12:30;15.70;99.90
13245;DHT22;6689;53.400;12.486;2022-10-18T16:15:08;15.70;99.90
13245;DHT22;6689;53.400;12.486;2022-10-18T16:17:35;15.60;99.90
13245;DHT22;6689;53.400;12.486;2022-10-18T16:20:05;15.60;99.90
13245;DHT22;6689;53.400;12.486;2022-10-18T16:22:34;15.60;99.90
13245;DHT22;6689;53.400;12.486;2022-10-18T16:25:04;15.40;99.90
13245;DHT22;6689;53.400;12.486;2022-10-18T16:27:45;15.40;99.90
13245;DHT22;6689;53.400;12.486;2022-10-18T16:30:29;15.30;99.90
13245;DHT22;6689;53.400;12.486;2022-10-18T16:33:01;15.40;99.90
13245;DHT22;6689;53.400;12.486;2022-10-18T16:35:29;15.30;99.90
13245;DHT22;6689;53.400;12.486;2022-10-18T16:37:58;15.30;99.90
13245;DHT22;6689;53.400;12.486;2022-10-18T16:40:26;15.10;99.90
13245;DHT22;6689;53.400;12.486;2022-10-18T16:42:56;15.20;99.90
13245;DHT22;6689;53.400;12.486;2022-10-18T16:45:24;15.20;99.90
13245;DHT22;6689;53.400;12.486;2022-10-18T16:50:50;15.20;99.90
13245;DHT22;6689;53.400;12.486;2022-10-18T16:53:28;14.90;99.90
13245;DHT22;6689;53.400;12.486;2022-10-18T16:56:10;14.90;99.90
13245;DHT22;6689;53.400;12.486;2022-10-18T16:58:40;14.80;99.90
13245;DHT22;6689;53.400;12.486;2022-10-18T17:01:20;14.80;99.90
13245;DHT22;6689;53.400;12.486;2022-10-18T17:03:52;14.80;99.90
13245;DHT22;6689;53.400;12.486;2022-10-18T17:09:21;14.60;99.90
13245;DHT22;6689;53.400;12.486;2022-10-18T17:11:50;14.60;99.90
13245;DHT22;6689;53.400;12.486;2022-10-18T17:14:19;14.60;99.90
13245;DHT22;6689;53.400;12.486;2022-10-18T17:16:47;14.60;99.90
13245;DHT22;6689;53.400;12.486;2022-10-18T17:19:29;14.50;99.90
13245;DHT22;6689;53.400;12.486;2022-10-18T17:22:10;14.50;99.90
13245;DHT22;6689;53.400;12.486;2022-10-18T17:24:53;14.50;99.90
13245;DHT22;6689;53.400;12.486;2022-10-18T17:27:20;14.40;99.90
13245;DHT22;6689;53.400;12.486;2022-10-18T17:30:02;14.40;99.90
13245;DHT22;6689;53.400;12.486;2022-10-18T17:32:31;14.40;99.90
13245;DHT22;6689;53.400;12.486;2022-10-18T17:35:00;14.40;99.90
13245;DHT22;6689;53.400;12.486;2022-10-18T17:37:30;14.30;99.90
13245;DHT22;6689;53.400;12.486;2022-10-18T17:40:16;14.30;99.90
13245;DHT22;6689;53.400;12.486;2022-10-18T17:42:48;14.30;99.90
13245;DHT22;6689;53.400;12.486;2022-10-18T17:45:30;14.30;99.90
13245;DHT22;6689;53.400;12.486;2022-10-18T17:48:11;14.30;99.90
13245;DHT22;6689;53.400;12.486;2022-10-18T17:50:40;14.30;99.90